Tiempo atmosférico en la estación meteorológica de Miranda De Ebro, Burgos (512 m.)



Fecha
DESCASC
Temp. máxima en grados centígrados (hora)
DESCASC
Temp. mínima en grados centígrados (hora)
DESCASC
Temp. media en grados centígrados
DESCASC
Racha de viento máxima en m/sg (hora)
DESCASC
Velocidad máxima media en intervalos de 10 minutos(hora)
DESCASC
Precipitaciones diarias en mm
DESCASC
Precipitaciones de 00:00 a 06:00 en mm
DESCASC
Precipitaciones de 06:00 a 12:00 en mm
DESCASC
Precipitaciones de 12:00 a 18:00 en mm
DESCASC
Precipitaciones de 18:00 a 24:00 en mm
DESCASC
28-02-2021 11 (16:10) 1.6 (04:20) 6.3 13.06 (21:00) 6.94 (21:10) 8.8 0 0 0 8.8
27-02-2021 14.6 (14:40) 4.5 (21:10) 9.6 7.22 (16:20) 4.72 (16:20) 0 0 0 0 0
26-02-2021 14.2 (15:40) 7.5 (01:00) 10.8 5.56 (15:50) 3.06 (16:50) 0 0 0 0 0
25-02-2021 12.5 (15:10) 5.1 (00:00) 8.8 4.72 (13:50) 2.78 (13:50) 0 0 0 0 0
24-02-2021 19 (16:30) 3.6 (00:00) 11.3 9.44 (14:40) 5 (15:00) 0 0 0 0 0
23-02-2021 17 (16:20) 0.2 (00:00) 8.6 8.06 (14:20) 4.72 (20:00) 0 0 0 0 0
22-02-2021 11.4 (00:00) 2.9 (00:00) 7.1 14.72 (00:30) 7.5 (00:30) 32.4 29.4 2.6 0.4 0
21-02-2021 12.8 (00:00) 8.8 (00:00) 10.8 15 (20:20) 6.67 (20:00) 0.6 0 0 0 0.6
20-02-2021 19.6 (16:40) 4.9 (00:00) 12.3 13.33 (23:59) 6.39 (23:59) 0 0 0 0 0
19-02-2021 20.2 (17:00) 8.9 (00:00) 14.6 14.44 (13:40) 6.39 (13:40) 0 0 0 0 0
18-02-2021 17.1 (13:20) 4.2 (00:00) 10.7 14.72 (12:20) 7.78 (15:00) 0.4 0 0 0 0.4
17-02-2021 17.4 (14:30) 6.4 (00:00) 11.9 9.44 (14:30) 4.17 (14:30) 0 0 0 0 0
16-02-2021 15.2 (14:10) 6.6 (00:00) 10.9 10.28 (12:40) 5.56 (12:40) 0 0 0 0 0
15-02-2021 10.7 (13:00) 6.1 (00:00) 8.4 11.11 (15:10) 5.83 (15:00) 0 0 0 0 0
14-02-2021 15 (15:00) 1.2 (00:00) 8.1 9.17 (14:10) 5.56 (16:40) 0 0 0 0 0
13-02-2021 14.2 (15:20) 0.8 (00:00) 7.5 2.78 (15:50) 1.67 (15:50) 0 0 0 0 0
12-02-2021 14 (17:30) 4.3 (00:00) 9.2 9.72 (14:50) 5.83 (16:00) 4.4 0.4 4 0 0
11-02-2021 -- (--) -- (--) -- -- (--) -- (--) -- -- -- 0 0
10-02-2021 -- (--) -- (--) -- -- (--) -- (--) -- -- -- -- --
09-02-2021 -- (--) -- (--) -- -- (--) -- (--) -- -- -- -- --
08-02-2021 -- (--) -- (--) -- -- (--) -- (--) -- -- -- -- --
07-02-2021 -- (--) -- (--) -- -- (--) -- (--) -- -- -- -- --
06-02-2021 -- (--) -- (--) -- -- (--) -- (--) -- -- -- -- --
05-02-2021 -- (--) -- (--) -- -- (--) -- (--) -- -- -- -- --
04-02-2021 -- (--) -- (--) -- -- (--) -- (--) -- -- -- -- --
03-02-2021 -- (--) -- (--) -- -- (--) -- (--) -- -- -- -- --

Gráficas

Temp. máximas Temp. mínimas Temp. medias Precipitaciones Rachas de viento máximas Velocidades máximas media en intervalos de 10 minutos

Datos horarios

Fecha y hora oficial Temperatura (ºC) Velocidad del viento (km/h) Dirección del viento Racha (km/h) Dirección de racha Precipitación (mm) Presión (hPa) Tendencia (hPa) Humedad (%)
2021-03-04 23:00:00 5.5 0 Calma 4 Noroeste 0 -- -- 95
2021-03-04 22:00:00 6.5 0 Calma 3 Sur 0 -- -- 94
2021-03-04 21:00:00 7.4 0 Calma 4 Noroeste 0 -- -- 91
2021-03-04 20:00:00 8.5 2 Norte 11 Sudeste 0 -- -- 88
2021-03-04 19:00:00 10.9 9 Sudeste 23 Sudeste 0 -- -- 80
2021-03-04 18:00:00 12.9 13 Sudeste 22 Sudeste 0 -- -- 73
2021-03-04 17:00:00 14.9 12 Sudeste 21 Sudeste 0 -- -- 68
2021-03-04 16:00:00 15.6 4 Sudeste 10 Sudeste 0 -- -- 66
2021-03-04 15:00:00 14.7 4 Nordeste 9 Noroeste 0 -- -- 68
2021-03-04 14:00:00 13 5 Noroeste 10 Noroeste 0 -- -- 73
2021-03-04 13:00:00 11.9 4 Este 10 Este 0 -- -- 76
2021-03-04 12:00:00 11.1 5 Sudeste 12 Sudeste 0 -- -- 81
2021-03-04 11:00:00 10.5 4 Este 8 Este 0 -- -- 86
2021-03-04 10:00:00 9 3 Sudeste 6 Sudeste 0 -- -- 92
2021-03-04 09:00:00 8.2 0 Calma 3 Noroeste 0 -- -- 94
2021-03-04 08:00:00 7.7 0 Calma 8 Sudeste 0 -- -- 94
2021-03-04 07:00:00 7.6 0 Calma 3 Noroeste 0 -- -- 94
2021-03-04 06:00:00 7.4 0 Calma 5 Este 0 -- -- 94
2021-03-04 05:00:00 7.2 0 Calma 8 Sudeste 0 -- -- 95
2021-03-04 04:00:00 7 5 Sudeste 9 Sudeste 0 -- -- 96
2021-03-04 03:00:00 6.6 3 Este 9 Sudeste 0 -- -- 96
2021-03-04 02:00:00 6.3 0 Calma 3 Norte 0 -- -- 96
2021-03-04 01:00:00 5.2 0 Calma 3 Noroeste 0 -- -- 96
2021-03-04 00:00:00 5.1 0 Calma 5 Oeste 0 -- -- 95
2021-03-03 23:00:00 6.3 2 Noroeste 4 Oeste 0 -- -- 94
2021-03-03 22:00:00 7.8 3 Noroeste 8 Sudoeste 0 -- -- 92
2021-03-03 21:00:00 8.7 5 Sudeste 10 Sudeste 0 -- -- 90
2021-03-03 20:00:00 9.1 3 Sudeste 10 Este 0 -- -- 89
2021-03-03 19:00:00 10.9 6 Sudeste 15 Sudeste 0 -- -- 82
2021-03-03 18:00:00 13.3 10 Sudeste 17 Sudeste 0 -- -- 74
2021-03-03 17:00:00 14.8 9 Sudeste 15 Sudeste 0 -- -- 68
2021-03-03 16:00:00 14.5 6 Sudeste 14 Sudeste 0 -- -- 68
2021-03-03 15:00:00 14.7 5 Sudeste 13 Sudoeste 0 -- -- 67
2021-03-03 14:00:00 12.4 6 Sudoeste 14 Sudoeste 0 -- -- 75
2021-03-03 13:00:00 11.5 5 Noroeste 10 Oeste 0 -- -- 79
2021-03-03 12:00:00 10.8 2 Oeste 8 Sudoeste 0 -- -- 81
2021-03-03 11:00:00 9.6 4 Sudoeste 8 Sudoeste 0 -- -- 85
2021-03-03 10:00:00 8.5 4 Sudoeste 7 Sudoeste 0 -- -- 90
2021-03-03 09:00:00 7.1 2 Sudeste 4 Este 0 -- -- 94
2021-03-03 08:00:00 6.3 0 Calma 4 Norte 0 -- -- 95
2021-03-03 07:00:00 6.1 2 Este 5 Sudeste 0 -- -- 96
2021-03-03 06:00:00 5.6 0 Calma 5 Este 0 -- -- 96
2021-03-03 05:00:00 4.9 3 Este 6 Sudeste 0 -- -- 96
2021-03-03 04:00:00 4.7 0 Calma 4 Norte 0 -- -- 96
2021-03-03 03:00:00 5.5 2 Sudeste 4 Sudeste 0 -- -- 95
2021-03-03 02:00:00 5.4 0 Calma 6 Noroeste 0 -- -- 94
2021-03-03 01:00:00 5.5 5 Noroeste 8 Noroeste 0 -- -- 93
2021-03-03 00:00:00 6.4 5 Noroeste 10 Oeste 0 -- -- 89
2021-03-02 23:00:00 7.9 3 Sudoeste 10 Oeste 0 -- -- 85
2021-03-02 22:00:00 8.9 4 Oeste 8 Oeste 0 -- -- 81
2021-03-02 21:00:00 9.2 2 Nordeste 11 Este 0 -- -- 79
2021-03-02 20:00:00 11.5 4 Este 9 Este 0 -- -- 69
2021-03-02 19:00:00 12.4 2 Sur 15 Sudeste 0 -- -- 66
2021-03-02 18:00:00 13.6 9 Sudeste 23 Sudeste 0 -- -- 64
2021-03-02 17:00:00 15.5 12 Sur 28 Sudeste 0 -- -- 61
2021-03-02 16:00:00 15.2 12 Sur 23 Sur 0 -- -- 60
2021-03-02 15:00:00 17.4 12 Sur 23 Sur 0 -- -- 52
2021-03-02 14:00:00 17.1 15 Sudeste 26 Sudeste 0 -- -- 54
2021-03-02 13:00:00 16.7 10 Sudeste 24 Sur 0 -- -- 55
2021-03-02 12:00:00 14.6 5 Norte 9 Norte 0 -- -- 62
2021-03-02 11:00:00 13 4 Norte 12 Norte 0 -- -- 68
2021-03-02 10:00:00 10.8 8 Norte 12 Norte 0 -- -- 77
2021-03-02 09:00:00 7.8 3 Oeste 9 Noroeste 0 -- -- 88
2021-03-02 08:00:00 6.6 3 Noroeste 8 Norte 0 -- -- 93
2021-03-02 07:00:00 5.9 2 Noroeste 9 Norte 0 -- -- 94
2021-03-02 06:00:00 6.3 3 Norte 8 Sudeste 0 -- -- 93
2021-03-02 05:00:00 6.6 2 Sudeste 6 Noroeste 0 -- -- 93
2021-03-02 04:00:00 6.4 2 Noroeste 9 Noroeste 0 -- -- 91
2021-03-02 03:00:00 6.1 3 Norte 9 Noroeste 0 -- -- 92
2021-03-02 02:00:00 6.2 3 Noroeste 9 Noroeste 0 -- -- 91
2021-03-02 01:00:00 6.7 2 Sur 8 Noroeste 0 -- -- 92
2021-03-02 00:00:00 7.4 4 Nordeste 12 Noroeste 0 -- -- 89
2021-03-01 23:00:00 8.9 3 Norte 13 Sudeste 0 -- -- 83
2021-03-01 22:00:00 10.1 9 Sudeste 24 Sudeste 0 -- -- 77
2021-03-01 21:00:00 10.2 9 Sudeste 22 Este 0 -- -- 77
2021-03-01 20:00:00 10.3 6 Este 22 Sudeste 0 -- -- 78
2021-03-01 19:00:00 10.6 5 Sur 24 Este 0 -- -- 75
2021-03-01 18:00:00 11.4 9 Este 31 Sudeste 0 -- -- 71
2021-03-01 17:00:00 12 17 Sudeste 32 Este 0 -- -- 68
2021-03-01 16:00:00 13 18 Sudeste 30 Sudeste 0 -- -- 65
2021-03-01 15:00:00 12.6 16 Sudeste 36 Sudeste 0 -- -- 64
2021-03-01 14:00:00 13.3 17 Sudeste 34 Sudeste 0 -- -- 61
2021-03-01 13:00:00 12.7 18 Sudeste 41 Sudeste 0 -- -- 63
2021-03-01 12:00:00 12.4 19 Sudeste 33 Sudeste 0 -- -- 63
2021-03-01 11:00:00 11.6 18 Sudeste 35 Sudeste 0 -- -- 67
2021-03-01 10:00:00 10.6 15 Sudeste 31 Sudeste 0 -- -- 69
2021-03-01 09:00:00 7.7 5 Este 15 Este 0 -- -- 81
2021-03-01 08:00:00 4.3 3 Noroeste 9 Este 0 -- -- 91
2021-03-01 07:00:00 5 4 Noroeste 16 Nordeste 0 -- -- 89
2021-03-01 06:00:00 5.8 6 Noroeste 14 Sur 0 -- -- 88
2021-03-01 05:00:00 6.1 4 Noroeste 13 Noroeste 0 -- -- 88
2021-03-01 04:00:00 5.9 6 Noroeste 15 Oeste 0 -- -- 91
2021-03-01 03:00:00 6.6 3 Norte 8 Sudeste 0 -- -- 89
2021-03-01 02:00:00 6.7 2 Noroeste 8 Norte 0 -- -- 94
2021-03-01 01:00:00 7.3 3 Noroeste 6 Noroeste 0 -- -- 93
2021-03-01 00:00:00 8.7 4 Noroeste 18 Noroeste 0 -- -- 88
2021-02-28 23:00:00 8.1 3 Sudoeste 27 Sudeste 0.6 -- -- 93
2021-02-28 22:00:00 8.6 11 Este 44 Sudeste 5 -- -- 93
2021-02-28 21:00:00 9 21 Sudeste 47 Sudeste 3.2 -- -- 90
2021-02-28 20:00:00 10.1 7 Sudeste 23 Sudeste 0 -- -- 76
2021-02-28 19:00:00 9.4 5 Noroeste 10 Oeste 0 -- -- 81
2021-02-28 18:00:00 9.8 5 Oeste 11 Este 0 -- -- 78
2021-02-28 17:00:00 10.9 4 Este 19 Nordeste 0 -- -- 70
2021-02-28 16:00:00 10.5 2 Este 7 Sudoeste 0 -- -- 73
2021-02-28 15:00:00 9.6 2 Sudoeste 9 Oeste 0 -- -- 75
2021-02-28 14:00:00 8.6 3 Oeste 9 Oeste 0 -- -- 78
2021-02-28 13:00:00 8 5 Oeste 10 Oeste 0 -- -- 80
2021-02-28 12:00:00 6.7 3 Oeste 5 Oeste 0 -- -- 83
2021-02-28 11:00:00 6 4 Oeste 8 Oeste 0 -- -- 85
2021-02-28 10:00:00 5.1 5 Oeste 7 Noroeste 0 -- -- 89
2021-02-28 09:00:00 4.4 2 Oeste 5 Sudoeste 0 -- -- 91
2021-02-28 08:00:00 3.3 0 Calma 5 Norte 0 -- -- 94
2021-02-28 07:00:00 3.1 2 Noroeste 4 Este 0 -- -- 94
2021-02-28 06:00:00 2.7 2 Sur 6 Sudoeste 0 -- -- 94
2021-02-28 05:00:00 2.1 2 Oeste 4 Norte 0 -- -- 95
2021-02-28 04:00:00 1.8 0 Calma 5 Noroeste 0 -- -- 93
2021-02-28 03:00:00 3.1 2 Este 6 Sudeste 0 -- -- 92
2021-02-28 02:00:00 4.1 0 Calma 6 Norte 0 -- -- 89
2021-02-28 01:00:00 5.3 2 Norte 8 Norte 0 -- -- 84
2021-02-28 00:00:00 6.5 5 Norte 15 Noroeste 0 -- -- 79
2021-02-27 23:00:00 6.5 9 Noroeste 13 Noroeste 0 -- -- 80
2021-02-27 22:00:00 5.9 5 Noroeste 10 Norte 0 -- -- 81
2021-02-27 21:00:00 4.6 4 Norte 13 Norte 0 -- -- 83
2021-02-27 20:00:00 6.1 6 Norte 13 Nordeste 0 -- -- 78
2021-02-27 19:00:00 8.6 7 Norte 21 Norte 0 -- -- 70
2021-02-27 18:00:00 11.8 8 Norte 22 Norte 0 -- -- 57
2021-02-27 17:00:00 12.7 11 Norte 26 Norte 0 -- -- 58
2021-02-27 16:00:00 12.4 16 Norte 25 Norte 0 -- -- 62
2021-02-27 15:00:00 14.3 10 Nordeste 19 Nordeste 0 -- -- 54
2021-02-27 14:00:00 14 5 Norte 19 Nordeste 0 -- -- 54
2021-02-27 13:00:00 12.7 8 Nordeste 15 Noroeste 0 -- -- 59
2021-02-27 12:00:00 11.8 8 Norte 14 Noroeste 0 -- -- 67
2021-02-27 11:00:00 10.3 4 Norte 14 Noroeste 0 -- -- 79
2021-02-27 10:00:00 9.5 5 Noroeste 10 Norte 0 -- -- 84
2021-02-27 09:00:00 9 3 Norte 9 Norte 0 -- -- 84
2021-02-27 08:00:00 8.9 6 Norte 10 Norte 0 -- -- 83
2021-02-27 07:00:00 8.8 3 Norte 9 Norte 0 -- -- 84
2021-02-27 06:00:00 8.9 4 Norte 10 Norte 0 -- -- 82
2021-02-27 05:00:00 9.1 3 Norte 13 Norte 0 -- -- 80
2021-02-27 04:00:00 9.1 2 Norte 10 Nordeste 0 -- -- 83
2021-02-27 03:00:00 9.1 5 Norte 11 Norte 0 -- -- 81
2021-02-27 02:00:00 9 5 Norte 9 Norte 0 -- -- 84
2021-02-27 01:00:00 8.9 4 Norte 11 Norte 0 -- -- 83
2021-02-27 00:00:00 9.5 3 Norte 12 Nordeste 0 -- -- 84
2021-02-26 23:00:00 9.9 2 Norte 8 Nordeste 0 -- -- 83
2021-02-26 22:00:00 10.1 3 Nordeste 9 Nordeste 0 -- -- 84
2021-02-26 21:00:00 10.3 5 Nordeste 10 Norte 0 -- -- 82
2021-02-26 20:00:00 10.6 4 Norte 10 Nordeste 0 -- -- 80
2021-02-26 19:00:00 11.2 6 Norte 13 Nordeste 0 -- -- 78
2021-02-26 18:00:00 12.3 8 Nordeste 18 Nordeste 0 -- -- 73
2021-02-26 17:00:00 12.8 10 Nordeste 19 Nordeste 0 -- -- 69
2021-02-26 16:00:00 13.5 8 Nordeste 20 Nordeste 0 -- -- 66
2021-02-26 15:00:00 14.1 6 Este 16 Este 0 -- -- 65
2021-02-26 14:00:00 12.9 7 Nordeste 19 Este 0 -- -- 67
2021-02-26 13:00:00 12.6 10 Nordeste 19 Nordeste 0 -- -- 69
2021-02-26 12:00:00 12 6 Nordeste 15 Nordeste 0 -- -- 73
2021-02-26 11:00:00 11 4 Este 9 Este 0 -- -- 79
2021-02-26 10:00:00 9.7 4 Nordeste 8 Nordeste 0 -- -- 86
2021-02-26 09:00:00 8.6 0 Calma 4 Este 0 -- -- 93
2021-02-26 08:00:00 8.4 2 Norte 5 Norte 0 -- -- 93
2021-02-26 07:00:00 8.1 2 Oeste 4 Oeste 0 -- -- 95
2021-02-26 06:00:00 8 3 Noroeste 5 Noroeste 0 -- -- 95
2021-02-26 05:00:00 7.9 2 Noroeste 4 Noroeste 0 -- -- 95
2021-02-26 04:00:00 8 0 Calma 3 Norte 0 -- -- 95
2021-02-26 03:00:00 7.9 3 Noroeste 3 Noroeste 0 -- -- 95
2021-02-26 02:00:00 7.6 0 Calma 4 Norte 0 -- -- 95
2021-02-26 01:00:00 7.5 0 Calma 3 Noroeste 0 -- -- 94
2021-02-26 00:00:00 7.8 2 Oeste 5 Sur 0 -- -- 93
2021-02-25 23:00:00 7.5 3 Noroeste 4 Noroeste 0 -- -- 93
2021-02-25 22:00:00 6.7 2 Noroeste 4 Norte 0 -- -- 94
2021-02-25 21:00:00 7.3 2 Noroeste 7 Oeste 0 -- -- 91
2021-02-25 20:00:00 9.2 3 Oeste 6 Oeste 0 -- -- 85
2021-02-25 19:00:00 10.4 5 Noroeste 8 Noroeste 0 -- -- 81
2021-02-25 18:00:00 11.9 4 Noroeste 6 Noroeste 0 -- -- 75
2021-02-25 17:00:00 12.2 3 Sur 12 Sur 0 -- -- 71
2021-02-25 16:00:00 12.2 5 Sur 16 Sudeste 0 -- -- 72
2021-02-25 15:00:00 12.3 3 Sudeste 13 Sudeste 0 -- -- 71
2021-02-25 14:00:00 11.9 9 Sudeste 17 Sur 0 -- -- 73
2021-02-25 13:00:00 11.2 0 Calma 7 Noroeste 0 -- -- 74
2021-02-25 12:00:00 10.4 3 Noroeste 9 Noroeste 0 -- -- 78
2021-02-25 11:00:00 9.4 6 Noroeste 9 Noroeste 0 -- -- 84
2021-02-25 10:00:00 9 3 Noroeste 6 Sudoeste 0 -- -- 90
2021-02-25 09:00:00 7.6 0 Calma 4 Nordeste 0 -- -- 96
2021-02-25 08:00:00 6.7 0 Calma 4 Norte 0 -- -- 97
2021-02-25 07:00:00 5.8 0 Calma 5 Noroeste 0 -- -- 97
2021-02-25 06:00:00 5.1 2 Nordeste 6 Este 0 -- -- 96
2021-02-25 05:00:00 5.6 3 Sur 8 Este 0 -- -- 95
2021-02-25 04:00:00 6.8 3 Sudeste 6 Sudoeste 0 -- -- 95
2021-02-25 03:00:00 6.6 2 Norte 8 Oeste 0 -- -- 94
2021-02-25 02:00:00 7.9 3 Noroeste 17 Sudeste 0 -- -- 92
2021-02-25 01:00:00 9.4 3 Sudeste 15 Sudeste 0 -- -- 86
2021-02-25 00:00:00 10.2 5 Sur 16 Sudoeste 0 -- -- 87
2021-02-24 23:00:00 11.3 8 Sur 18 Sudeste 0 -- -- 81
2021-02-24 22:00:00 13 10 Sudeste 25 Sudeste 0 -- -- 71
2021-02-24 21:00:00 13.8 17 Sudeste 28 Sudeste 0 -- -- 66
2021-02-24 20:00:00 14 12 Sudeste 30 Sudeste 0 -- -- 66
2021-02-24 19:00:00 15.3 14 Sudeste 29 Sudeste 0 -- -- 60
2021-02-24 18:00:00 17.2 15 Sudeste 26 Sudeste 0 -- -- 57
2021-02-24 17:00:00 18.8 11 Sudeste 26 Sur 0 -- -- 52
2021-02-24 16:00:00 18 14 Sudeste 31 Sudeste 0 -- -- 54
2021-02-24 15:00:00 17.8 18 Sur 34 Sudeste 0 -- -- 57
2021-02-24 14:00:00 17.1 11 Sur 24 Sudeste 0 -- -- 62
2021-02-24 13:00:00 15.3 10 Sur 23 Sur 0 -- -- 67
2021-02-24 12:00:00 12.1 11 Sur 25 Sur 0 -- -- 75
2021-02-24 11:00:00 11.2 13 Sur 28 Sur 0 -- -- 78
2021-02-24 10:00:00 10.6 10 Sur 17 Sur 0 -- -- 77
2021-02-24 09:00:00 6.6 2 Nordeste 6 Nordeste 0 -- -- 95
2021-02-24 08:00:00 5.3 2 Norte 10 Norte 0 -- -- 95
2021-02-24 07:00:00 4.9 3 Norte 12 Sur 0 -- -- 98
2021-02-24 06:00:00 4.2 2 Noroeste 5 Noroeste 0 -- -- 96
2021-02-24 05:00:00 3.7 3 Nordeste 5 Este 0 -- -- 94
2021-02-24 04:00:00 4.7 3 Este 8 Noroeste 0 -- -- 92
2021-02-24 03:00:00 5.3 3 Norte 5 Noroeste 0 -- -- 92
2021-02-24 02:00:00 7.4 2 Norte 19 Sudeste 0 -- -- 82
2021-02-24 01:00:00 9.2 5 Este 28 Sur 0 -- -- 78
2021-02-24 00:00:00 10.8 14 Sudeste 24 Sur 0 -- -- 71
2021-02-23 23:00:00 11 13 Sur 27 Sur 0 -- -- 70
2021-02-23 22:00:00 11.1 16 Sudeste 28 Sur 0 -- -- 70
2021-02-23 21:00:00 11.3 17 Sudeste 28 Sur 0 -- -- 70
2021-02-23 20:00:00 11.8 17 Sudeste 28 Sur 0 -- -- 69
2021-02-23 19:00:00 12.4 13 Sudeste 23 Sur 0 -- -- 68
2021-02-23 18:00:00 14.9 14 Sudeste 28 Sudeste 0 -- -- 60
2021-02-23 17:00:00 16.8 11 Sudeste 22 Sudeste 0 -- -- 55
2021-02-23 16:00:00 15.8 11 Sudeste 28 Sudeste 0 -- -- 60
2021-02-23 15:00:00 15.7 15 Sur 29 Sudeste 0 -- -- 62
2021-02-23 14:00:00 14.1 14 Sur 27 Sur 0 -- -- 66
2021-02-23 13:00:00 12.8 8 Sur 17 Oeste 0 -- -- 70
2021-02-23 12:00:00 9.4 10 Oeste 21 Sudoeste 0 -- -- 78
2021-02-23 11:00:00 9.3 9 Sudoeste 17 Sudoeste 0 -- -- 80
2021-02-23 10:00:00 7.1 4 Norte 6 Noroeste 0 -- -- 92
2021-02-23 09:00:00 2.6 2 Oeste 7 Noroeste 0 -- -- 99
2021-02-23 08:00:00 0.5 4 Noroeste 7 Oeste 0 -- -- 99
2021-02-23 07:00:00 0.4 2 Sur 5 Oeste 0 -- -- 98
2021-02-23 06:00:00 0.9 4 Oeste 10 Oeste 0 -- -- 97
2021-02-23 05:00:00 1.2 2 Noroeste 8 Sudeste 0 -- -- 97
2021-02-23 04:00:00 1.8 3 Sudeste 5 Sudeste 0 -- -- 97
2021-02-23 03:00:00 2.4 0 Calma 6 Oeste 0 -- -- 96
2021-02-23 02:00:00 3.5 4 Sudeste 11 Sudeste 0 -- -- 96
2021-02-23 01:00:00 2.5 0 Calma 7 Oeste 0 -- -- 95
2021-02-23 00:00:00 3.1 3 Noroeste 8 Oeste 0 -- -- 95
2021-02-22 23:00:00 4 0 Calma 6 Sudoeste 0 -- -- 95
2021-02-22 22:00:00 5 0 Calma 5 Sur 0 -- -- 94
2021-02-22 21:00:00 6.9 0 Calma 14 Sudeste 0 -- -- 90
2021-02-22 20:00:00 7.6 10 Sudeste 15 Sudeste 0 -- -- 90
2021-02-22 19:00:00 8 3 Este 5 Sudeste 0 -- -- 85
2021-02-22 18:00:00 8.2 0 Calma 8 Noroeste 0 -- -- 82
2021-02-22 17:00:00 8.7 5 Noroeste 13 Oeste 0 -- -- 78
2021-02-22 16:00:00 9.2 4 Noroeste 10 Oeste 0 -- -- 75
2021-02-22 15:00:00 8.7 4 Oeste 11 Oeste 0 -- -- 81
2021-02-22 14:00:00 7.4 5 Noroeste 9 Oeste 0 -- -- 89
2021-02-22 13:00:00 6.4 4 Noroeste 8 Oeste 0.4 -- -- 91
2021-02-22 12:00:00 5.3 4 Oeste 8 Oeste 0.8 -- -- 94
2021-02-22 11:00:00 4.7 0 Calma 7 Sudeste 0.8 -- -- 96
2021-02-22 10:00:00 4.3 4 Sudeste 6 Sudeste 0.6 -- -- 96
2021-02-22 09:00:00 3.7 4 Sudeste 6 Sudeste 0.4 -- -- 95
2021-02-22 08:00:00 3.6 2 Sudeste 8 Sudeste 0 -- -- 95
2021-02-22 07:00:00 3.3 3 Sudeste 6 Sudeste 0 -- -- 94
2021-02-22 06:00:00 3.3 0 Calma 8 Noroeste 0.4 -- -- 93
2021-02-22 05:00:00 3.3 3 Norte 9 Norte 1.4 -- -- 92
2021-02-22 04:00:00 3.4 5 Norte 13 Norte 1.4 -- -- 91
2021-02-22 03:00:00 3.2 8 Norte 17 Noroeste 3.2 -- -- 93
2021-02-22 02:00:00 3 8 Noroeste 35 Norte 6.6 -- -- 94
2021-02-22 01:00:00 3.5 19 Noroeste 53 Norte 16.4 -- -- 92
2021-02-22 00:00:00 11.4 7 Este 33 Sudeste 0.4 -- -- 80
2021-02-21 23:00:00 11.8 18 Sudeste 41 Sudeste 0 -- -- 77
2021-02-21 22:00:00 11.9 23 Sudeste 45 Sudeste 0.2 -- -- 76
2021-02-21 21:00:00 11.5 20 Sudeste 54 Este 0 -- -- 78
2021-02-21 20:00:00 12.2 24 Sudeste 46 Sudeste 0 -- -- 72
2021-02-21 19:00:00 11.9 18 Sudeste 37 Sudeste 0 -- -- 75
2021-02-21 18:00:00 11.3 6 Sudeste 17 Sudeste 0 -- -- 77
2021-02-21 17:00:00 11.8 6 Noroeste 28 Noroeste 0 -- -- 68
2021-02-21 16:00:00 11.7 5 Nordeste 22 Este 0 -- -- 68
2021-02-21 15:00:00 12.3 7 Este 18 Este 0 -- -- 65
2021-02-21 14:00:00 12.4 6 Este 12 Este 0 -- -- 64
2021-02-21 13:00:00 12.8 5 Noroeste 13 Oeste 0 -- -- 60
2021-02-21 12:00:00 11.9 7 Oeste 17 Oeste 0 -- -- 63
2021-02-21 11:00:00 10.9 3 Oeste 10 Oeste 0 -- -- 70
2021-02-21 10:00:00 9.4 8 Noroeste 17 Noroeste 0 -- -- 74
2021-02-21 09:00:00 9 7 Noroeste 15 Noroeste 0 -- -- 74
2021-02-21 08:00:00 9.8 4 Norte 14 Norte 0 -- -- 67
2021-02-21 07:00:00 9.3 6 Noroeste 15 Norte 0 -- -- 71
2021-02-21 06:00:00 9.5 4 Oeste 10 Noroeste 0 -- -- 69
2021-02-21 05:00:00 9.7 4 Norte 9 Nordeste 0 -- -- 68
2021-02-21 04:00:00 10.2 5 Norte 10 Sur 0 -- -- 67
2021-02-21 03:00:00 11.7 10 Sudeste 40 Sudeste 0 -- -- 59
2021-02-21 02:00:00 11.9 21 Sudeste 39 Sudeste 0 -- -- 59
2021-02-21 01:00:00 12.7 19 Sudeste 39 Sudeste 0 -- -- 57
2021-02-21 00:00:00 12.8 23 Sudeste 48 Sudeste 0 -- -- 58
2021-02-20 23:00:00 14.4 17 Sur 33 Sur 0 -- -- 52
2021-02-20 22:00:00 15.4 18 Sur 32 Sur 0 -- -- 47
2021-02-20 21:00:00 16.1 18 Sur 40 Sur 0 -- -- 41
2021-02-20 20:00:00 16.7 19 Sur 36 Sudeste 0 -- -- 37
2021-02-20 19:00:00 16.5 16 Sudeste 33 Sudeste 0 -- -- 38
2021-02-20 18:00:00 17.5 11 Sudeste 35 Sur 0 -- -- 42
2021-02-20 17:00:00 19.1 17 Sudeste 33 Sur 0 -- -- 38
2021-02-20 16:00:00 17.9 17 Sudeste 30 Sudeste 0 -- -- 39
2021-02-20 15:00:00 17.6 13 Sudeste 32 Sudeste 0 -- -- 45
2021-02-20 14:00:00 18.5 22 Sur 39 Sur 0 -- -- 40
2021-02-20 13:00:00 17.8 19 Sudeste 38 Sudeste 0 -- -- 43
2021-02-20 12:00:00 16.9 16 Sudeste 40 Sudeste 0 -- -- 45
2021-02-20 11:00:00 16 16 Sudeste 39 Sudeste 0 -- -- 44
2021-02-20 10:00:00 13.8 20 Sudeste 41 Sudeste 0 -- -- 50
2021-02-20 09:00:00 11.6 15 Sudeste 31 Sudeste 0 -- -- 55
2021-02-20 08:00:00 10.4 10 Sudeste 26 Sudeste 0 -- -- 58
2021-02-20 07:00:00 7.4 4 Norte 11 Noroeste 0 -- -- 73
2021-02-20 06:00:00 5 3 Noroeste 7 Este 0 -- -- 83
2021-02-20 05:00:00 5 0 Calma 8 Oeste 0 -- -- 82
2021-02-20 04:00:00 5 3 Este 11 Oeste 0 -- -- 80
2021-02-20 03:00:00 5.4 2 Norte 8 Este 0 -- -- 80
2021-02-20 02:00:00 7.3 5 Noroeste 12 Sur 0 -- -- 71
2021-02-20 01:00:00 9.3 5 Sudeste 16 Sudeste 0 -- -- 60
2021-02-20 00:00:00 8.9 2 Nordeste 11 Sudeste 0 -- -- 66
2021-02-19 23:00:00 9.8 3 Sudeste 12 Sudoeste 0 -- -- 63
2021-02-19 22:00:00 13.8 8 Oeste 13 Sudoeste 0 -- -- 50
2021-02-19 21:00:00 14.8 7 Oeste 16 Oeste 0 -- -- 48
2021-02-19 20:00:00 16.3 11 Oeste 28 Sudoeste 0 -- -- 41
2021-02-19 19:00:00 17.4 18 Oeste 30 Oeste 0 -- -- 37
2021-02-19 18:00:00 18.5 15 Sudoeste 32 Oeste 0 -- -- 35
2021-02-19 17:00:00 20.2 18 Sudoeste 33 Oeste 0 -- -- 32
2021-02-19 16:00:00 20 10 Sudoeste 38 Sudoeste 0 -- -- 33
2021-02-19 15:00:00 19.9 12 Sur 33 Sudoeste 0 -- -- 35
2021-02-19 14:00:00 18.7 16 Sudoeste 52 Sudoeste 0 -- -- 34
2021-02-19 13:00:00 17.8 18 Sudoeste 37 Sudoeste 0 -- -- 36
2021-02-19 12:00:00 16.5 8 Sur 22 Sur 0 -- -- 48
2021-02-19 11:00:00 14.9 9 Sur 24 Sudoeste 0 -- -- 51
2021-02-19 10:00:00 13.9 11 Sudoeste 28 Sudoeste 0 -- -- 54
2021-02-19 09:00:00 12.1 8 Sudoeste 30 Sudoeste 0 -- -- 57
2021-02-19 08:00:00 12.1 12 Sudoeste 29 Sudoeste 0 -- -- 55
2021-02-19 07:00:00 12 10 Sudoeste 31 Sudoeste 0 -- -- 57
2021-02-19 06:00:00 12.1 13 Sudoeste 36 Sudoeste 0 -- -- 59
2021-02-19 05:00:00 12.5 17 Sudoeste 38 Sudoeste 0 -- -- 59
2021-02-19 04:00:00 12.6 11 Sudoeste 30 Sudoeste 0 -- -- 62
2021-02-19 03:00:00 12.8 10 Sudoeste 27 Sudoeste 0 -- -- 60
2021-02-19 02:00:00 12.2 12 Oeste 34 Sudoeste 0 -- -- 69
2021-02-19 01:00:00 12.3 13 Sudoeste 34 Noroeste 0 -- -- 72
2021-02-19 00:00:00 12.3 14 Sudoeste 33 Sudoeste 0 -- -- 71
2021-02-18 23:00:00 12 8 Sudoeste 19 Oeste 0 -- -- 74
2021-02-18 22:00:00 11.2 2 Sudoeste 15 Oeste 0 -- -- 82
2021-02-18 21:00:00 12.1 8 Oeste 14 Oeste 0 -- -- 76
2021-02-18 20:00:00 11.8 6 Oeste 15 Sudoeste 0 -- -- 78
2021-02-18 19:00:00 12.1 13 Oeste 30 Sudoeste 0.4 -- -- 76
2021-02-18 18:00:00 14.6 10 Oeste 29 Oeste 0 -- -- 63
2021-02-18 17:00:00 16.2 15 Oeste 36 Sudoeste 0 -- -- 51
2021-02-18 16:00:00 16 11 Sudoeste 42 Oeste 0 -- -- 52
2021-02-18 15:00:00 16.3 28 Oeste 50 Oeste 0 -- -- 49
2021-02-18 14:00:00 15.9 26 Oeste 53 Oeste 0 -- -- 48
2021-02-18 13:00:00 16.9 19 Oeste 53 Sudoeste 0 -- -- 42
2021-02-18 12:00:00 15.5 23 Sudoeste 49 Sudoeste 0 -- -- 41
2021-02-18 11:00:00 15.5 13 Sudoeste 25 Sudoeste 0 -- -- 46
2021-02-18 10:00:00 12.5 3 Este 10 Sudeste 0 -- -- 64
2021-02-18 09:00:00 7.8 4 Norte 17 Este 0 -- -- 79
2021-02-18 08:00:00 7.9 6 Este 12 Este 0 -- -- 79
2021-02-18 07:00:00 6.6 3 Este 16 Sudeste 0 -- -- 85
2021-02-18 06:00:00 6.8 5 Sudeste 15 Nordeste 0 -- -- 87
2021-02-18 05:00:00 5.6 4 Norte 8 Noroeste 0 -- -- 98
2021-02-18 04:00:00 4.2 3 Noroeste 8 Oeste 0 -- -- 95
2021-02-18 03:00:00 4.6 2 Nordeste 5 Nordeste 0 -- -- 95
2021-02-18 02:00:00 5.7 0 Calma 10 Noroeste 0 -- -- 93
2021-02-18 01:00:00 6.7 4 Noroeste 10 Oeste 0 -- -- 93
2021-02-18 00:00:00 7 3 Oeste 8 Sudoeste 0 -- -- 93
2021-02-17 23:00:00 9.6 6 Sudeste 14 Sudeste 0 -- -- 82
2021-02-17 22:00:00 9 5 Noroeste 12 Noroeste 0 -- -- 89
2021-02-17 21:00:00 11.4 4 Sudeste 19 Sudeste 0 -- -- 78
2021-02-17 20:00:00 11.2 4 Nordeste 10 Noroeste 0 -- -- 83
2021-02-17 19:00:00 12 2 Sur 13 Sur 0 -- -- 78
2021-02-17 18:00:00 13.5 4 Sudoeste 17 Sur 0 -- -- 74
2021-02-17 17:00:00 13.9 10 Sur 22 Sur 0 -- -- 69
2021-02-17 16:00:00 15.4 12 Sudeste 28 Sudoeste 0 -- -- 67
2021-02-17 15:00:00 16.5 14 Sudoeste 34 Sur 0 -- -- 57
2021-02-17 14:00:00 15.4 13 Sudoeste 21 Sudoeste 0 -- -- 66
2021-02-17 13:00:00 13.7 10 Sur 21 Sur 0 -- -- 71
2021-02-17 12:00:00 14 7 Sudoeste 15 Sudoeste 0 -- -- 69
2021-02-17 11:00:00 13.4 5 Este 11 Sudeste 0 -- -- 70
2021-02-17 10:00:00 13.4 5 Sur 11 Sur 0 -- -- 71
2021-02-17 09:00:00 8.9 4 Sur 8 Sur 0 -- -- 88
2021-02-17 08:00:00 7.1 2 Sudeste 9 Este 0 -- -- 93
2021-02-17 07:00:00 8.5 2 Nordeste 9 Sudoeste 0 -- -- 89
2021-02-17 06:00:00 8.3 0 Calma 8 Sudeste 0 -- -- 91
2021-02-17 05:00:00 7.1 4 Este 6 Sudeste 0 -- -- 94
2021-02-17 04:00:00 6.9 0 Calma 6 Nordeste 0 -- -- 90
2021-02-17 03:00:00 7.9 0 Calma 10 Noroeste 0 -- -- 87
2021-02-17 02:00:00 8.2 3 Sur 8 Sudeste 0 -- -- 89
2021-02-17 01:00:00 8.7 4 Sudeste 17 Oeste 0 -- -- 85
2021-02-17 00:00:00 10.6 4 Sudoeste 17 Oeste 0 -- -- 80
2021-02-16 23:00:00 11.7 12 Oeste 19 Sudoeste 0 -- -- 75
2021-02-16 22:00:00 11.4 6 Sudoeste 20 Sudoeste 0 -- -- 78
2021-02-16 21:00:00 11.5 8 Sur 18 Sudoeste 0 -- -- 76
2021-02-16 20:00:00 10.7 8 Sur 12 Sur 0 -- -- 79
2021-02-16 19:00:00 11.8 2 Este 12 Sur 0 -- -- 75
2021-02-16 18:00:00 12.9 2 Norte 9 Sudeste 0 -- -- 71
2021-02-16 17:00:00 13.1 4 Sudoeste 20 Sudoeste 0 -- -- 68
2021-02-16 16:00:00 13.1 8 Sur 24 Sudoeste 0 -- -- 67
2021-02-16 15:00:00 13 9 Sur 30 Sudeste 0 -- -- 67
2021-02-16 14:00:00 14.8 8 Sur 28 Sur 0 -- -- 64
2021-02-16 13:00:00 13.1 15 Sudeste 37 Sudeste 0 -- -- 68
2021-02-16 12:00:00 12.7 11 Sur 26 Sur 0 -- -- 69
2021-02-16 11:00:00 10.9 7 Sudeste 16 Sudeste 0 -- -- 74
2021-02-16 10:00:00 7.8 2 Oeste 18 Sudeste 0 -- -- 87
2021-02-16 09:00:00 7.8 8 Este 27 Sudeste 0 -- -- 86
2021-02-16 08:00:00 6.9 10 Sudeste 22 Sudoeste 0 -- -- 91
2021-02-16 07:00:00 7.5 13 Sur 28 Sur 0 -- -- 88
2021-02-16 06:00:00 7.4 14 Sur 35 Sudeste 0 -- -- 89
2021-02-16 05:00:00 7.4 11 Sudeste 31 Sudeste 0 -- -- 89
2021-02-16 04:00:00 7.7 8 Sudeste 31 Sur 0 -- -- 88
2021-02-16 03:00:00 8 13 Sudeste 33 Sudeste 0 -- -- 87
2021-02-16 02:00:00 8.3 13 Sudeste 33 Sudeste 0 -- -- 87
2021-02-16 01:00:00 8.2 5 Este 32 Sudeste 0 -- -- 86
2021-02-16 00:00:00 8.1 3 Sudeste 17 Este 0 -- -- 86
2021-02-15 23:00:00 7.9 4 Norte 12 Sudeste 0 -- -- 88
2021-02-15 22:00:00 8.2 7 Sudeste 15 Sudeste 0 -- -- 86
2021-02-15 21:00:00 8.1 2 Este 26 Sudeste 0 -- -- 85
2021-02-15 20:00:00 8.5 11 Sudeste 26 Sudeste 0 -- -- 84
2021-02-15 19:00:00 8.3 13 Sudeste 32 Sudeste 0 -- -- 85
2021-02-15 18:00:00 8.3 14 Sur 30 Sudeste 0 -- -- 84
2021-02-15 17:00:00 8.6 18 Sur 33 Sur 0 -- -- 82
2021-02-15 16:00:00 9.4 20 Sur 40 Sudeste 0 -- -- 79
2021-02-15 15:00:00 10.3 21 Sur 34 Sudeste 0 -- -- 75
2021-02-15 14:00:00 10.2 19 Sudeste 35 Sudeste 0 -- -- 76
2021-02-15 13:00:00 10.7 13 Sudeste 33 Sudeste 0 -- -- 75
2021-02-15 12:00:00 9.5 12 Sudeste 30 Sudeste 0 -- -- 79
2021-02-15 11:00:00 8.2 15 Sudeste 34 Sudeste 0 -- -- 83
2021-02-15 10:00:00 6.9 14 Sudeste 30 Sudeste 0 -- -- 87
2021-02-15 09:00:00 6.3 12 Sudeste 32 Sudeste 0 -- -- 89
2021-02-15 08:00:00 6.2 15 Sur 27 Sudeste 0 -- -- 90
2021-02-15 07:00:00 6.1 12 Sudeste 29 Sur 0 -- -- 91
2021-02-15 06:00:00 6.3 18 Sudeste 35 Sur 0 -- -- 90
2021-02-15 05:00:00 6.3 17 Sudeste 40 Sudeste 0 -- -- 90
2021-02-15 04:00:00 6.5 14 Sudeste 33 Sudeste 0 -- -- 90
2021-02-15 03:00:00 7.1 15 Sudeste 28 Sudeste 0 -- -- 89
2021-02-15 02:00:00 7.7 13 Sudeste 21 Sudeste 0 -- -- 87
2021-02-15 01:00:00 6.3 3 Este 18 Este 0 -- -- 91
2021-02-15 00:00:00 8.1 11 Sudeste 18 Sudeste 0 -- -- 86
2021-02-14 23:00:00 8.8 4 Norte 13 Nordeste 0 -- -- 85
2021-02-14 22:00:00 8.9 2 Nordeste 18 Sudeste 0 -- -- 83
2021-02-14 21:00:00 10.1 6 Sudeste 30 Sudeste 0 -- -- 80
2021-02-14 20:00:00 10.8 16 Sudeste 31 Sudeste 0 -- -- 77
2021-02-14 19:00:00 11.1 17 Sudeste 32 Sur 0 -- -- 74
2021-02-14 18:00:00 11.7 13 Sudeste 29 Sudeste 0 -- -- 75
2021-02-14 17:00:00 12.4 19 Sudeste 33 Sudeste 0 -- -- 73
2021-02-14 16:00:00 13.1 10 Sudeste 30 Sur 0 -- -- 71
2021-02-14 15:00:00 15 12 Sur 33 Sur 0 -- -- 62
2021-02-14 14:00:00 13.9 13 Sudeste 29 Sur 0 -- -- 67
2021-02-14 13:00:00 13.6 11 Sudeste 32 Sudeste 0 -- -- 64
2021-02-14 12:00:00 12.2 3 Nordeste 11 Este 0 -- -- 72
2021-02-14 11:00:00 9.1 3 Norte 11 Norte 0 -- -- 93
2021-02-14 10:00:00 3.5 4 Noroeste 8 Oeste 0 -- -- 98
2021-02-14 09:00:00 2.2 2 Sudoeste 6 Sudoeste 0 -- -- 98
2021-02-14 08:00:00 2.3 0 Calma 4 Noroeste 0 -- -- 98
2021-02-14 07:00:00 2.3 3 Sudoeste 5 Sudoeste 0 -- -- 98
2021-02-14 06:00:00 2.1 2 Noroeste 3 Noroeste 0 -- -- 98
2021-02-14 05:00:00 1.2 0 Calma 4 Noroeste 0 -- -- 97
2021-02-14 04:00:00 1.3 0 Calma 3 Noroeste 0 -- -- 97
2021-02-14 03:00:00 1.6 0 Calma 6 Oeste 0 -- -- 96
2021-02-14 02:00:00 2.2 3 Noroeste 6 Oeste 0 -- -- 96
2021-02-14 01:00:00 2.6 0 Calma 3 Oeste 0 -- -- 96
2021-02-14 00:00:00 3.4 0 Calma 6 Oeste 0 -- -- 95
2021-02-13 23:00:00 4.4 2 Oeste 4 Nordeste 0 -- -- 95
2021-02-13 22:00:00 5.5 2 Sudoeste 6 Oeste 0 -- -- 93
2021-02-13 21:00:00 6.5 0 Calma 3 Sudoeste 0 -- -- 91
2021-02-13 20:00:00 8.9 0 Calma 4 Oeste 0 -- -- 83
2021-02-13 19:00:00 11.4 0 Calma 6 Oeste 0 -- -- 74
2021-02-13 18:00:00 12.5 4 Sudoeste 8 Sudoeste 0 -- -- 66
2021-02-13 17:00:00 12.9 2 Norte 8 Oeste 0 -- -- 67
2021-02-13 16:00:00 12.8 6 Noroeste 10 Noroeste 0 -- -- 67
2021-02-13 15:00:00 12.5 3 Este 6 Norte 0 -- -- 66
2021-02-13 14:00:00 10.3 2 Sudoeste 6 Sur 0 -- -- 74
2021-02-13 13:00:00 9.5 4 Sudoeste 10 Noroeste 0 -- -- 77
2021-02-13 08:00:00 -- -- -- -- -- -- -- -- --
2021-02-13 07:00:00 1.1 3 Norte 4 Norte 0 -- -- 97
2021-02-13 06:00:00 1.4 0 Calma 5 Oeste 0 -- -- 97
2021-02-13 05:00:00 1.6 2 Oeste 5 Oeste 0 -- -- 97
2021-02-13 04:00:00 1.3 0 Calma 4 Oeste 0 -- -- 96
2021-02-13 03:00:00 1.9 0 Calma 6 Oeste 0 -- -- 96
2021-02-13 02:00:00 2.7 0 Calma 5 Sudoeste 0 -- -- 95
2021-02-13 01:00:00 3.5 3 Norte 6 Oeste 0 -- -- 93
2021-02-13 00:00:00 4.6 2 Sudeste 8 Sudeste 0 -- -- 95
2021-02-12 23:00:00 5.3 0 Calma 6 Este 0 -- -- 92
2021-02-12 22:00:00 6.3 3 Sudeste 8 Oeste 0 -- -- 89
2021-02-12 21:00:00 8.2 4 Sudoeste 14 Noroeste 0 -- -- 83
2021-02-12 20:00:00 9.8 13 Noroeste 22 Noroeste 0 -- -- 77
2021-02-12 19:00:00 10.2 15 Noroeste 25 Oeste 0 -- -- 79
2021-02-12 18:00:00 12.1 12 Oeste 24 Noroeste 0 -- -- 73
2021-02-12 17:00:00 12.7 14 Noroeste 32 Oeste 0 -- -- 74
2021-02-12 16:00:00 12.1 21 Oeste 33 Oeste 0 -- -- 76
2021-02-12 15:00:00 12.1 19 Oeste 35 Oeste 0 -- -- 75
2021-02-12 14:00:00 11.5 12 Noroeste 31 Noroeste 0 -- -- 79
2021-02-12 13:00:00 11.7 13 Noroeste 26 Noroeste 0 -- -- 80
2021-02-12 12:00:00 10.6 11 Oeste 22 Oeste 0.4 -- -- 81
2021-02-12 11:00:00 10.1 10 Oeste 25 Sudoeste 1.4 -- -- 83
2021-02-12 10:00:00 10.7 12 Oeste 23 Oeste 2.2 -- -- 84
2021-02-12 09:00:00 11.2 2 Noroeste 27 Oeste 0 -- -- 84
2021-02-12 08:00:00 12 14 Oeste 28 Sudoeste 0 -- -- 79
2021-02-12 07:00:00 12.1 16 Oeste 29 Sudoeste 0 -- -- 78
2021-02-12 06:00:00 12.4 13 Sudoeste 32 Sur 0.2 -- -- 74
2021-02-12 05:00:00 12.1 8 Sudoeste 23 Oeste 0.2 -- -- 78
2021-02-12 04:00:00 12.1 12 Sur 28 Sur 0 -- -- 77
2021-02-12 03:00:00 10.9 5 Oeste 13 Sudoeste 0 -- -- 80
2021-02-12 02:00:00 11 7 Sudoeste 14 Sudoeste 0 -- -- 81
2021-02-12 01:00:00 11.5 4 Sudoeste 13 Sudoeste 0 -- -- 80
2021-02-12 00:00:00 12.1 6 Sudoeste 12 Sudoeste 0 -- -- 81
2021-02-11 23:00:00 12.9 4 Sudoeste 15 Sudoeste 0 -- -- 78
2021-02-11 22:00:00 9.8 4 Noroeste 6 Noroeste 0 -- -- 92
2021-02-11 21:00:00 10.9 0 Calma 9 Sur 0 -- -- 86
2021-02-11 20:00:00 12.8 4 Sudoeste 13 Sudoeste 0 -- -- 81
2021-02-11 19:00:00 13.5 3 Sur 9 Oeste 0 -- -- 76
2021-02-11 18:00:00 14.9 5 Sudoeste 22 Sudoeste 0 -- -- 69
2021-02-11 17:00:00 16 10 Sudoeste 34 Oeste 0 -- -- 62
2021-02-11 16:00:00 15.7 15 Oeste 30 Oeste 0 -- -- 66
2021-02-11 15:00:00 14.6 16 Oeste 32 Oeste 0 -- -- 71
2021-02-11 14:00:00 14.4 10 Oeste 28 Sudoeste 0 -- -- 73
2021-02-11 13:00:00 14 8 Oeste 23 Oeste 0 -- -- 74
2021-02-11 12:00:00 12.4 10 Oeste 25 Sudoeste 0 -- -- 77
2021-02-11 11:00:00 11.7 13 Oeste -- -- -- -- -- 78
2021-02-11 10:00:00 -- -- -- -- -- -- -- -- --
2021-02-11 09:00:00 -- -- -- -- -- -- -- -- --
2021-02-11 08:00:00 -- -- -- -- -- -- -- -- --
2021-02-11 07:00:00 -- -- -- -- -- -- -- -- --
2021-02-11 06:00:00 -- -- -- -- -- -- -- -- --
2021-02-11 05:00:00 -- -- -- -- -- -- -- -- --
2021-02-11 04:00:00 -- -- -- -- -- -- -- -- --
2021-02-11 03:00:00 -- -- -- -- -- -- -- -- --
2021-02-11 02:00:00 -- -- -- -- -- -- -- -- --
2021-02-11 01:00:00 -- -- -- -- -- -- -- -- --
2021-02-11 00:00:00 -- -- -- -- -- -- -- -- --
2021-02-10 23:00:00 -- -- -- -- -- -- -- -- --
2021-02-10 22:00:00 -- -- -- -- -- -- -- -- --
2021-02-10 21:00:00 -- -- -- -- -- -- -- -- --
2021-02-10 20:00:00 -- -- -- -- -- -- -- -- --
2021-02-10 19:00:00 -- -- -- -- -- -- -- -- --
2021-02-10 18:00:00 -- -- -- -- -- -- -- -- --
2021-02-10 17:00:00 -- -- -- -- -- -- -- -- --
2021-02-10 16:00:00 -- -- -- -- -- -- -- -- --
2021-02-10 15:00:00 -- -- -- -- -- -- -- -- --
2021-02-10 14:00:00 -- -- -- -- -- -- -- -- --
2021-02-10 13:00:00 -- -- -- -- -- -- -- -- --
2021-02-10 12:00:00 -- -- -- -- -- -- -- -- --
2021-02-10 11:00:00 -- -- -- -- -- -- -- -- --
2021-02-10 10:00:00 -- -- -- -- -- -- -- -- --
2021-02-10 09:00:00 -- -- -- -- -- -- -- -- --
2021-02-10 08:00:00 -- -- -- -- -- -- -- -- --
2021-02-10 07:00:00 -- -- -- -- -- -- -- -- --
2021-02-10 06:00:00 -- -- -- -- -- -- -- -- --
2021-02-10 05:00:00 -- -- -- -- -- -- -- -- --
2021-02-10 04:00:00 -- -- -- -- -- -- -- -- --
2021-02-10 03:00:00 -- -- -- -- -- -- -- -- --
2021-02-10 02:00:00 -- -- -- -- -- -- -- -- --
2021-02-10 01:00:00 -- -- -- -- -- -- -- -- --
2021-02-10 00:00:00 -- -- -- -- -- -- -- -- --
2021-02-09 23:00:00 -- -- -- -- -- -- -- -- --
2021-02-09 22:00:00 -- -- -- -- -- -- -- -- --
2021-02-09 21:00:00 -- -- -- -- -- -- -- -- --
2021-02-09 20:00:00 -- -- -- -- -- -- -- -- --
2021-02-09 19:00:00 -- -- -- -- -- -- -- -- --
2021-02-09 18:00:00 -- -- -- -- -- -- -- -- --
2021-02-09 17:00:00 -- -- -- -- -- -- -- -- --
2021-02-09 16:00:00 -- -- -- -- -- -- -- -- --
2021-02-09 15:00:00 -- -- -- -- -- -- -- -- --
2021-02-09 14:00:00 -- -- -- -- -- -- -- -- --
2021-02-09 13:00:00 -- -- -- -- -- -- -- -- --
2021-02-09 12:00:00 -- -- -- -- -- -- -- -- --
2021-02-09 11:00:00 -- -- -- -- -- -- -- -- --
2021-02-09 10:00:00 -- -- -- -- -- -- -- -- --
2021-02-09 09:00:00 -- -- -- -- -- -- -- -- --
2021-02-09 08:00:00 -- -- -- -- -- -- -- -- --
2021-02-09 07:00:00 -- -- -- -- -- -- -- -- --
2021-02-09 06:00:00 -- -- -- -- -- -- -- -- --
2021-02-09 05:00:00 -- -- -- -- -- -- -- -- --
2021-02-09 04:00:00 -- -- -- -- -- -- -- -- --
2021-02-09 03:00:00 -- -- -- -- -- -- -- -- --
2021-02-09 02:00:00 -- -- -- -- -- -- -- -- --
2021-02-09 01:00:00 -- -- -- -- -- -- -- -- --
2021-02-09 00:00:00 -- -- -- -- -- -- -- -- --
2021-02-08 23:00:00 -- -- -- -- -- -- -- -- --
2021-02-08 22:00:00 -- -- -- -- -- -- -- -- --
2021-02-08 21:00:00 -- -- -- -- -- -- -- -- --
2021-02-08 20:00:00 -- -- -- -- -- -- -- -- --
2021-02-08 19:00:00 -- -- -- -- -- -- -- -- --
2021-02-08 18:00:00 -- -- -- -- -- -- -- -- --
2021-02-08 17:00:00 -- -- -- -- -- -- -- -- --
2021-02-08 16:00:00 -- -- -- -- -- -- -- -- --
2021-02-08 15:00:00 -- -- -- -- -- -- -- -- --
2021-02-08 14:00:00 -- -- -- -- -- -- -- -- --
2021-02-08 13:00:00 -- -- -- -- -- -- -- -- --
2021-02-08 12:00:00 -- -- -- -- -- -- -- -- --
2021-02-08 11:00:00 -- -- -- -- -- -- -- -- --
2021-02-08 10:00:00 -- -- -- -- -- -- -- -- --
2021-02-08 09:00:00 -- -- -- -- -- -- -- -- --
2021-02-08 08:00:00 -- -- -- -- -- -- -- -- --
2021-02-08 07:00:00 -- -- -- -- -- -- -- -- --
2021-02-08 06:00:00 -- -- -- -- -- -- -- -- --
2021-02-08 05:00:00 -- -- -- -- -- -- -- -- --
2021-02-08 04:00:00 -- -- -- -- -- -- -- -- --
2021-02-08 03:00:00 -- -- -- -- -- -- -- -- --
2021-02-08 02:00:00 -- -- -- -- -- -- -- -- --
2021-02-08 01:00:00 -- -- -- -- -- -- -- -- --
2021-02-08 00:00:00 -- -- -- -- -- -- -- -- --
2021-02-07 23:00:00 -- -- -- -- -- -- -- -- --
2021-02-07 22:00:00 -- -- -- -- -- -- -- -- --
2021-02-07 21:00:00 -- -- -- -- -- -- -- -- --
2021-02-07 20:00:00 -- -- -- -- -- -- -- -- --
2021-02-07 19:00:00 -- -- -- -- -- -- -- -- --
2021-02-07 18:00:00 -- -- -- -- -- -- -- -- --
2021-02-07 17:00:00 -- -- -- -- -- -- -- -- --
2021-02-07 16:00:00 -- -- -- -- -- -- -- -- --
2021-02-07 15:00:00 -- -- -- -- -- -- -- -- --
2021-02-07 14:00:00 -- -- -- -- -- -- -- -- --
2021-02-07 13:00:00 -- -- -- -- -- -- -- -- --
2021-02-07 12:00:00 -- -- -- -- -- -- -- -- --
2021-02-07 11:00:00 -- -- -- -- -- -- -- -- --
2021-02-07 10:00:00 -- -- -- -- -- -- -- -- --
2021-02-07 09:00:00 -- -- -- -- -- -- -- -- --
2021-02-07 08:00:00 -- -- -- -- -- -- -- -- --
2021-02-07 07:00:00 -- -- -- -- -- -- -- -- --
2021-02-07 06:00:00 -- -- -- -- -- -- -- -- --
2021-02-07 05:00:00 -- -- -- -- -- -- -- -- --
2021-02-07 04:00:00 -- -- -- -- -- -- -- -- --
2021-02-07 03:00:00 -- -- -- -- -- -- -- -- --
2021-02-07 02:00:00 -- -- -- -- -- -- -- -- --
2021-02-07 01:00:00 -- -- -- -- -- -- -- -- --
2021-02-07 00:00:00 -- -- -- -- -- -- -- -- --
2021-02-06 23:00:00 -- -- -- -- -- -- -- -- --
2021-02-06 22:00:00 -- -- -- -- -- -- -- -- --
2021-02-06 21:00:00 -- -- -- -- -- -- -- -- --
2021-02-06 20:00:00 -- -- -- -- -- -- -- -- --
2021-02-06 19:00:00 -- -- -- -- -- -- -- -- --
2021-02-06 18:00:00 -- -- -- -- -- -- -- -- --
2021-02-06 17:00:00 -- -- -- -- -- -- -- -- --
2021-02-06 16:00:00 -- -- -- -- -- -- -- -- --
2021-02-06 15:00:00 -- -- -- -- -- -- -- -- --
2021-02-06 14:00:00 -- -- -- -- -- -- -- -- --
2021-02-06 13:00:00 -- -- -- -- -- -- -- -- --
2021-02-06 12:00:00 -- -- -- -- -- -- -- -- --
2021-02-06 11:00:00 -- -- -- -- -- -- -- -- --
2021-02-06 10:00:00 -- -- -- -- -- -- -- -- --
2021-02-06 09:00:00 -- -- -- -- -- -- -- -- --
2021-02-06 08:00:00 -- -- -- -- -- -- -- -- --
2021-02-06 07:00:00 -- -- -- -- -- -- -- -- --
2021-02-06 06:00:00 -- -- -- -- -- -- -- -- --
2021-02-06 05:00:00 -- -- -- -- -- -- -- -- --
2021-02-06 04:00:00 -- -- -- -- -- -- -- -- --
2021-02-06 03:00:00 -- -- -- -- -- -- -- -- --
2021-02-06 02:00:00 -- -- -- -- -- -- -- -- --
2021-02-06 01:00:00 -- -- -- -- -- -- -- -- --
2021-02-06 00:00:00 -- -- -- -- -- -- -- -- --
2021-02-05 23:00:00 -- -- -- -- -- -- -- -- --
2021-02-05 22:00:00 -- -- -- -- -- -- -- -- --
2021-02-05 21:00:00 -- -- -- -- -- -- -- -- --
2021-02-05 20:00:00 -- -- -- -- -- -- -- -- --
2021-02-05 19:00:00 -- -- -- -- -- -- -- -- --
2021-02-05 18:00:00 -- -- -- -- -- -- -- -- --
2021-02-05 17:00:00 -- -- -- -- -- -- -- -- --
2021-02-05 16:00:00 -- -- -- -- -- -- -- -- --
2021-02-05 15:00:00 -- -- -- -- -- -- -- -- --
2021-02-05 14:00:00 -- -- -- -- -- -- -- -- --
2021-02-05 13:00:00 -- -- -- -- -- -- -- -- --
2021-02-05 12:00:00 -- -- -- -- -- -- -- -- --
2021-02-05 11:00:00 -- -- -- -- -- -- -- -- --
2021-02-05 10:00:00 -- -- -- -- -- -- -- -- --
2021-02-05 09:00:00 -- -- -- -- -- -- -- -- --
2021-02-05 08:00:00 -- -- -- -- -- -- -- -- --
2021-02-05 07:00:00 -- -- -- -- -- -- -- -- --
2021-02-05 06:00:00 -- -- -- -- -- -- -- -- --
2021-02-05 05:00:00 -- -- -- -- -- -- -- -- --
2021-02-05 04:00:00 -- -- -- -- -- -- -- -- --
2021-02-05 03:00:00 -- -- -- -- -- -- -- -- --
2021-02-05 02:00:00 -- -- -- -- -- -- -- -- --
2021-02-05 01:00:00 -- -- -- -- -- -- -- -- --
2021-02-05 00:00:00 -- -- -- -- -- -- -- -- --
2021-02-04 23:00:00 -- -- -- -- -- -- -- -- --
2021-02-04 22:00:00 -- -- -- -- -- -- -- -- --
2021-02-04 21:00:00 -- -- -- -- -- -- -- -- --
2021-02-04 20:00:00 -- -- -- -- -- -- -- -- --
2021-02-04 19:00:00 -- -- -- -- -- -- -- -- --
2021-02-04 18:00:00 -- -- -- -- -- -- -- -- --
2021-02-04 17:00:00 -- -- -- -- -- -- -- -- --
2021-02-04 16:00:00 -- -- -- -- -- -- -- -- --
2021-02-04 15:00:00 -- -- -- -- -- -- -- -- --
2021-02-04 14:00:00 -- -- -- -- -- -- -- -- --
2021-02-04 13:00:00 -- -- -- -- -- -- -- -- --
2021-02-04 12:00:00 -- -- -- -- -- -- -- -- --
2021-02-04 11:00:00 -- -- -- -- -- -- -- -- --
2021-02-04 10:00:00 -- -- -- -- -- -- -- -- --
2021-02-04 09:00:00 -- -- -- -- -- -- -- -- --
2021-02-04 08:00:00 -- -- -- -- -- -- -- -- --
2021-02-04 07:00:00 -- -- -- -- -- -- -- -- --
2021-02-04 06:00:00 -- -- -- -- -- -- -- -- --
2021-02-04 05:00:00 -- -- -- -- -- -- -- -- --
2021-02-04 04:00:00 -- -- -- -- -- -- -- -- --
2021-02-04 03:00:00 -- -- -- -- -- -- -- -- --
2021-02-04 02:00:00 -- -- -- -- -- -- -- -- --
2021-02-04 01:00:00 -- -- -- -- -- -- -- -- --
2021-02-04 00:00:00 -- -- -- -- -- -- -- -- --
2021-02-03 23:00:00 -- -- -- -- -- -- -- -- --
2021-02-03 22:00:00 -- -- -- -- -- -- -- -- --
2021-02-03 21:00:00 -- -- -- -- -- -- -- -- --
2021-02-03 20:00:00 -- -- -- -- -- -- -- -- --
2021-02-03 19:00:00 -- -- -- -- -- -- -- -- --
2021-02-03 18:00:00 -- -- -- -- -- -- -- -- --
2021-02-03 17:00:00 -- -- -- -- -- -- -- -- --
2021-02-03 16:00:00 -- -- -- -- -- -- -- -- --
2021-02-03 15:00:00 -- -- -- -- -- -- -- -- --
2021-02-03 14:00:00 -- -- -- -- -- -- -- -- --
2021-02-03 13:00:00 -- -- -- -- -- -- -- -- --
2021-02-03 12:00:00 -- -- -- -- -- -- -- -- --
2021-02-03 11:00:00 -- -- -- -- -- -- -- -- --
2021-02-03 10:00:00 -- -- -- -- -- -- -- -- --
2021-02-03 09:00:00 -- -- -- -- -- -- -- -- --
2021-02-03 08:00:00 -- -- -- -- -- -- -- -- --
2021-02-03 07:00:00 -- -- -- -- -- -- -- -- --
2021-02-03 06:00:00 -- -- -- -- -- -- -- -- --
2021-02-03 05:00:00 -- -- -- -- -- -- -- -- --
2021-02-03 04:00:00 -- -- -- -- -- -- -- -- --
2021-02-03 03:00:00 -- -- -- -- -- -- -- -- --
2021-02-03 02:00:00 -- -- -- -- -- -- -- -- --
2021-02-03 01:00:00 -- -- -- -- -- -- -- -- --
2021-02-03 00:00:00 -- -- -- -- -- -- -- -- --